Tiempo atmosférico en la estación meteorológica de Marbella, Málaga (2 m.)



Fecha
DESCASC
Temp. máxima en grados centígrados (hora)
DESCASC
Temp. mínima en grados centígrados (hora)
DESCASC
Temp. media en grados centígrados
DESCASC
Racha de viento máxima en m/sg (hora)
DESCASC
Velocidad máxima media en intervalos de 10 minutos(hora)
DESCASC
Precipitaciones diarias en mm
DESCASC
Precipitaciones de 00:00 a 06:00 en mm
DESCASC
Precipitaciones de 06:00 a 12:00 en mm
DESCASC
Precipitaciones de 12:00 a 18:00 en mm
DESCASC
Precipitaciones de 18:00 a 24:00 en mm
DESCASC
14-12-2019 19.2 (16:30) 12.4 (04:00) 15.8 11.11 (19:20) 6.11 (17:50) 0 0 0 0 0
13-12-2019 18.4 (16:50) 14.4 (22:50) 16.4 19.72 (00:40) 16.11 (00:30) 0 0 0 0 0
12-12-2019 17.6 (12:00) 12.4 (07:20) 15 17.22 (23:59) 14.44 (23:30) 0 0 0 0 0
11-12-2019 18.1 (19:10) 12 (00:00) 15.1 14.17 (15:00) 11.39 (15:00) 0 0 0 0 0
10-12-2019 18.8 (11:20) 11.7 (00:00) 15.2 4.72 (22:20) 3.89 (22:20) 0 0 0 0 0
09-12-2019 19.5 (11:20) 14.3 (00:00) 16.9 10 (10:00) 5.56 (11:10) 0 0 0 0 0
08-12-2019 17.9 (17:00) 11.8 (00:00) 14.8 5.83 (19:30) 4.17 (11:00) 0 0 0 0 0
07-12-2019 17.6 (10:40) 13.5 (00:00) 15.6 3.89 (07:20) 2.5 (07:20) 0 0 0 0 0
06-12-2019 17.8 (15:10) 12.6 (00:00) 15.2 8.89 (15:10) 6.11 (11:40) 0 0 0 0 0
05-12-2019 16.4 (10:40) 11.4 (00:00) 13.9 9.44 (13:40) 7.78 (13:40) 0 0 0 0 0
04-12-2019 16.2 (14:30) 11.4 (00:00) 13.8 13.33 (17:50) 11.11 (15:40) 0 0 0 0 0
03-12-2019 16.7 (11:20) 12.9 (00:00) 14.8 -- (--) -- (--) 1.6 0.6 0 1 0
02-12-2019 15.3 (11:30) 10.2 (00:00) 12.8 11.39 (23:20) 9.44 (23:20) 32 0.2 28 3.8 0
01-12-2019 17.9 (14:40) 12.5 (00:00) 15.2 12.22 (17:10) 10 (17:10) 0.6 0 0 0 0.6
30-11-2019 18.4 (16:10) 12.2 (00:00) 15.3 6.94 (00:10) 5.83 (00:10) 0 0 0 0 0
29-11-2019 17.6 (17:20) 12.5 (00:00) 15.1 6.94 (23:30) 5.83 (23:50) 0 0 0 0 0
28-11-2019 18.6 (16:00) 12.1 (00:00) 15.4 8.06 (21:30) 4.72 (21:20) 0 0 0 0 0
27-11-2019 17.7 (11:20) 13.6 (00:00) 15.7 15.28 (03:10) 12.78 (00:20) 0 0 0 0 0
26-11-2019 19.2 (10:20) 13 (00:00) 16.1 12.22 (18:30) 9.17 (23:59) 0 0 0 0 0
25-11-2019 19.3 (14:00) 11.1 (00:00) 15.2 11.11 (16:00) 8.33 (16:00) 0 0 0 0 0
24-11-2019 17.9 (17:40) 10.2 (00:00) 14 5.28 (15:20) 3.89 (15:30) 0 0 0 0 0
23-11-2019 18.3 (15:00) 12.7 (00:00) 15.5 18.33 (05:20) 14.17 (04:10) 0 0 0 0 0
22-11-2019 16.8 (18:30) 14.4 (00:00) 15.6 19.72 (15:40) 15.28 (15:40) 29.2 3 20.8 0 5.4
21-11-2019 14.9 (20:20) 12.1 (00:00) 13.5 10.56 (20:10) 7.78 (19:00) 28.4 4.2 14.6 8.8 0.8
20-11-2019 13.8 (10:00) 10.2 (00:00) 12 3.89 (17:20) 2.78 (18:30) 2.2 0 1.2 1 0
19-11-2019 16.4 (15:00) 10.3 (00:00) 13.3 5.83 (03:10) 3.89 (17:20) 0 0 0 0 0
18-11-2019 18.2 (15:50) 12.3 (00:00) 15.3 19.72 (04:00) 16.11 (04:10) 0 0 0 0 0
17-11-2019 15 (23:50) 9 (00:00) 12 18.89 (13:50) 15.56 (14:40) 0 0 0 0 0
16-11-2019 15.9 (11:40) 8.5 (00:00) 12.2 8.06 (17:00) 6.39 (17:00) 0 0 0 0 0

Gráficas

Temp. máximas Temp. mínimas Temp. medias Precipitaciones Rachas de viento máximas Velocidades máximas media en intervalos de 10 minutos

Datos horarios

Fecha y hora oficial Temperatura (ºC) Velocidad del viento (km/h) Dirección del viento Racha (km/h) Dirección de racha Precipitación (mm) Presión (hPa) Tendencia (hPa) Humedad (%)
2019-12-15 23:00:00 13.9 5 Norte 7 Nordeste 0 -- -- 83
2019-12-15 22:00:00 15.3 0 Calma 8 Oeste 0 -- -- 79
2019-12-15 21:00:00 15 6 Nordeste 12 Nordeste 0 -- -- 75
2019-12-15 20:00:00 14.9 9 Nordeste 13 Nordeste 0 -- -- 68
2019-12-15 19:00:00 14.9 8 Nordeste 13 Este 0 -- -- 69
2019-12-15 18:00:00 15.1 5 Oeste 7 Oeste 0 -- -- 60
2019-12-15 17:00:00 16.3 4 Oeste 6 Sudoeste 0 -- -- 65
2019-12-15 16:00:00 16.5 5 Oeste 12 Oeste 0 -- -- 68
2019-12-15 15:00:00 15.9 12 Oeste 19 Oeste 0 -- -- 62
2019-12-15 14:00:00 15.3 17 Oeste 20 Sudoeste 0 -- -- 69
2019-12-15 13:00:00 15.3 13 Sudoeste 15 Oeste 0 -- -- 70
2019-12-15 12:00:00 15.3 10 Oeste 13 Sudoeste 0 -- -- 69
2019-12-15 11:00:00 15.4 9 Sudoeste 12 Sudoeste 0 -- -- 72
2019-12-15 10:00:00 15.6 6 Sudoeste 18 Noroeste 0 -- -- 59
2019-12-15 09:00:00 13.7 7 Norte 23 Oeste 0 -- -- 59
2019-12-15 08:00:00 12.5 8 Noroeste 16 Noroeste 0 -- -- 72
2019-12-15 07:00:00 13.9 5 Sudoeste 17 Oeste 0 -- -- 73
2019-12-15 06:00:00 13.1 9 Oeste 18 Sudoeste 0 -- -- 68
2019-12-15 05:00:00 12.4 4 Noroeste 8 Noroeste 0 -- -- 67
2019-12-15 04:00:00 12.6 5 Oeste 8 Norte 0 -- -- 67
2019-12-15 03:00:00 12.8 5 Norte 19 Noroeste 0 -- -- 64
2019-12-15 02:00:00 13.9 12 Noroeste 22 Noroeste 0 -- -- 57
2019-12-15 01:00:00 14.1 5 Noroeste 17 Noroeste 0 -- -- 58
2019-12-15 00:00:00 14.6 11 Noroeste 26 Noroeste 0 -- -- 54
2019-12-14 23:00:00 14.8 12 Noroeste 24 Norte 0 -- -- 54
2019-12-14 22:00:00 14.7 12 Noroeste 35 Nordeste 0 -- -- 55
2019-12-14 21:00:00 15.1 20 Noroeste 39 Norte 0 -- -- 55
2019-12-14 20:00:00 15.2 18 Norte 40 Norte 0 -- -- 55
2019-12-14 19:00:00 15.5 18 Norte 39 Norte 0 -- -- 56
2019-12-14 18:00:00 16.2 19 Norte 38 Norte 0 -- -- 55
2019-12-14 17:00:00 18.7 16 Norte 32 Norte 0 -- -- 49
2019-12-14 16:00:00 18.1 10 Sur 16 Sur 0 -- -- 64
2019-12-14 15:00:00 18 7 Sudeste 17 Sur 0 -- -- 60
2019-12-14 14:00:00 17.4 13 Sur 22 Sur 0 -- -- 70
2019-12-14 13:00:00 16.9 13 Sur 17 Sur 0 -- -- 69
2019-12-14 12:00:00 16.5 13 Sudoeste 16 Sudoeste 0 -- -- 70
2019-12-14 11:00:00 16.9 12 Sur 22 Sudoeste 0 -- -- 67
2019-12-14 10:00:00 16.8 8 Sudoeste 14 Noroeste 0 -- -- 66
2019-12-14 09:00:00 14.4 6 Sudoeste 11 Oeste 0 -- -- 78
2019-12-14 08:00:00 13.4 9 Oeste 21 Noroeste 0 -- -- 74
2019-12-14 07:00:00 14.4 12 Noroeste 25 Noroeste 0 -- -- 67
2019-12-14 06:00:00 13.3 6 Norte 12 Norte 0 -- -- 73
2019-12-14 05:00:00 12.9 5 Norte 11 Noroeste 0 -- -- 73
2019-12-14 04:00:00 12.4 6 Noroeste 9 Noroeste 0 -- -- 79
2019-12-14 03:00:00 12.7 6 Oeste 10 Oeste 0 -- -- 81
2019-12-14 02:00:00 13.7 5 Noroeste 15 Oeste 0 -- -- 76
2019-12-14 01:00:00 13.8 5 Oeste 13 Oeste 0 -- -- 79
2019-12-14 00:00:00 14.6 5 Norte 11 Nordeste 0 -- -- 78
2019-12-13 23:00:00 14.4 3 Nordeste 14 Sudoeste 0 -- -- 76
2019-12-13 22:00:00 14.8 0 Calma 9 Norte 0 -- -- 73
2019-12-13 21:00:00 15.3 6 Nordeste 13 Nordeste 0 -- -- 74
2019-12-13 20:00:00 16.2 6 Nordeste 14 Sudeste 0 -- -- 73
2019-12-13 19:00:00 17 5 Sudeste 29 Sudoeste 0 -- -- 73
2019-12-13 18:00:00 17.5 17 Oeste 41 Sudoeste 0 -- -- 72
2019-12-13 17:00:00 18.1 30 Oeste 45 Sudoeste 0 -- -- 71
2019-12-13 16:00:00 17.3 38 Sudoeste 52 Sudoeste 0 -- -- 75
2019-12-13 15:00:00 17.2 45 Sudoeste 54 Sudoeste 0 -- -- 75
2019-12-13 14:00:00 17.2 40 Sudoeste 61 Sudoeste 0 -- -- 76
2019-12-13 13:00:00 17 45 Sudoeste 55 Sudoeste 0 -- -- 74
2019-12-13 12:00:00 17.2 35 Sudoeste 48 Oeste 0 -- -- 74
2019-12-13 11:00:00 17.4 31 Sudoeste 42 Sudoeste 0 -- -- 73
2019-12-13 10:00:00 17.4 17 Oeste 33 Oeste 0 -- -- 74
2019-12-13 09:00:00 15.6 6 Norte 49 Sudoeste 0 -- -- 76
2019-12-13 08:00:00 15.6 10 Oeste 52 Sudoeste 0 -- -- 83
2019-12-13 07:00:00 15.7 19 Oeste 45 Sudoeste 0 -- -- 83
2019-12-13 06:00:00 15.7 36 Oeste 54 Sudoeste 0 -- -- 89
2019-12-13 05:00:00 15.5 48 Sudoeste 59 Sudoeste 0 -- -- 89
2019-12-13 04:00:00 15.7 44 Sudoeste 64 Sudoeste 0 -- -- 86
2019-12-13 03:00:00 15.3 51 Sudoeste 63 Sudoeste 0 -- -- 86
2019-12-13 02:00:00 15.5 55 Sudoeste 67 Sudoeste 0 -- -- 83
2019-12-13 01:00:00 15.5 54 Sudoeste 71 Sudoeste 0 -- -- 80
2019-12-13 00:00:00 15.9 50 Sudoeste 62 Sudoeste 0 -- -- 78
2019-12-12 23:00:00 15.8 47 Sudoeste 61 Sudoeste 0 -- -- 75
2019-12-12 22:00:00 15.8 43 Sudoeste 54 Sudoeste 0 -- -- 75
2019-12-12 21:00:00 15.5 39 Sudoeste 54 Sudoeste 0 -- -- 75
2019-12-12 20:00:00 15.6 44 Sudoeste 55 Sudoeste 0 -- -- 69
2019-12-12 19:00:00 15.4 48 Sudoeste 57 Sudoeste 0 -- -- 73
2019-12-12 18:00:00 16.1 31 Oeste 39 Oeste 0 -- -- 61
2019-12-12 17:00:00 16.8 27 Oeste 38 Oeste 0 -- -- 55
2019-12-12 16:00:00 17.1 25 Oeste 50 Oeste 0 -- -- 52
2019-12-12 15:00:00 16.8 11 Sudoeste 17 Sur 0 -- -- 49
2019-12-12 14:00:00 16.4 15 Sur 26 Sur 0 -- -- 50
2019-12-12 13:00:00 16 13 Sudoeste 37 Oeste 0 -- -- 52
2019-12-12 12:00:00 17.6 17 Noroeste 36 Noroeste 0 -- -- 43
2019-12-12 11:00:00 15.6 16 Sudoeste 22 Sudoeste 0 -- -- 46
2019-12-12 10:00:00 13.4 5 Noroeste 18 Norte 0 -- -- 50
2019-12-12 09:00:00 12.4 5 Norte 22 Noroeste 0 -- -- 51
2019-12-12 08:00:00 12.9 13 Norte 31 Noroeste 0 -- -- 47
2019-12-12 07:00:00 12.8 9 Noroeste 30 Noroeste 0 -- -- 47
2019-12-12 06:00:00 13.2 18 Noroeste 41 Noroeste 0 -- -- 44
2019-12-12 05:00:00 13.1 14 Oeste 38 Noroeste 0 -- -- 47
2019-12-12 04:00:00 12.6 15 Noroeste 28 Noroeste 0 -- -- 48
2019-12-12 03:00:00 13 10 Noroeste 31 Norte 0 -- -- 49
2019-12-12 02:00:00 13.5 17 Norte 34 Norte 0 -- -- 51
2019-12-12 01:00:00 13.8 21 Norte 34 Norte 0 -- -- 51
2019-12-12 00:00:00 14.1 14 Nordeste 33 Norte 0 -- -- 50
2019-12-11 23:00:00 14.5 19 Nordeste 40 Norte 0 -- -- 53
2019-12-11 22:00:00 15.4 27 Norte 44 Norte 0 -- -- 59
2019-12-11 21:00:00 15.5 9 Noroeste 21 Norte 0 -- -- 57
2019-12-11 20:00:00 17.1 8 Este 21 Este 0 -- -- 61
2019-12-11 19:00:00 17.7 12 Nordeste 22 Norte 0 -- -- 63
2019-12-11 18:00:00 17.1 17 Oeste 42 Sudoeste 0 -- -- 68
2019-12-11 17:00:00 17.5 31 Sudoeste 49 Sudoeste 0 -- -- 69
2019-12-11 16:00:00 17.4 35 Sudoeste 50 Sudoeste 0 -- -- 64
2019-12-11 15:00:00 17.5 41 Sudoeste 51 Sudoeste 0 -- -- 59
2019-12-11 14:00:00 17.2 29 Oeste 47 Oeste 0 -- -- 65
2019-12-11 13:00:00 16.9 39 Oeste 50 Oeste 0 -- -- 64
2019-12-11 12:00:00 16.9 13 Oeste 17 Oeste 0 -- -- 62
2019-12-11 11:00:00 16.8 9 Oeste 13 Oeste 0 -- -- 58
2019-12-11 10:00:00 15.8 6 Noroeste 12 Oeste 0 -- -- 61
2019-12-11 09:00:00 13.7 8 Noroeste 12 Oeste 0 -- -- 63
2019-12-11 08:00:00 12.4 3 Noroeste 12 Oeste 0 -- -- 71
2019-12-11 07:00:00 12.9 5 Noroeste 12 Oeste 0 -- -- 61
2019-12-11 06:00:00 13 7 Noroeste 13 Oeste 0 -- -- 60
2019-12-11 05:00:00 12.8 10 Oeste 14 Oeste 0 -- -- 70
2019-12-11 04:00:00 13.2 9 Noroeste 14 Oeste 0 -- -- 74
2019-12-11 03:00:00 13.3 6 Oeste 10 Sudoeste 0 -- -- 73
2019-12-11 02:00:00 12.8 6 Oeste 10 Oeste 0 -- -- 66
2019-12-11 01:00:00 13.2 3 Oeste 8 Noroeste 0 -- -- 76
2019-12-11 00:00:00 13.3 4 Noroeste 11 Oeste 0 -- -- 75
2019-12-10 23:00:00 13.7 6 Noroeste 17 Oeste 0 -- -- 75
2019-12-10 22:00:00 13.4 6 Oeste 12 Oeste 0 -- -- 81
2019-12-10 21:00:00 14.9 0 Calma 5 Sudeste 0 -- -- 83
2019-12-10 20:00:00 15.3 3 Noroeste 9 Oeste 0 -- -- 75
2019-12-10 19:00:00 15.5 8 Oeste 14 Oeste 0 -- -- 69
2019-12-10 18:00:00 16 11 Oeste 15 Oeste 0 -- -- 68
2019-12-10 17:00:00 17.2 9 Oeste 10 Oeste 0 -- -- 61
2019-12-10 16:00:00 17.7 4 Sudoeste 6 Sudoeste 0 -- -- 64
2019-12-10 15:00:00 17.7 4 Sur 10 Sudoeste 0 -- -- 63
2019-12-10 14:00:00 16.5 8 Sudoeste 9 Sudoeste 0 -- -- 67
2019-12-10 13:00:00 17.1 4 Sudoeste 5 Sudoeste 0 -- -- 67
2019-12-10 12:00:00 18.3 3 Sur 6 Sur 0 -- -- 60
2019-12-10 11:00:00 17.1 0 Calma 7 Sudoeste 0 -- -- 64
2019-12-10 10:00:00 15.9 4 Oeste 14 Oeste 0 -- -- 71
2019-12-10 09:00:00 13.1 9 Oeste 11 Oeste 0 -- -- 78
2019-12-10 08:00:00 12.5 6 Noroeste 10 Noroeste 0 -- -- 87
2019-12-10 07:00:00 12.2 4 Noroeste 8 Oeste 0 -- -- 87
2019-12-10 06:00:00 11.7 0 Calma 6 Nordeste 0 -- -- 85
2019-12-10 05:00:00 13 5 Noroeste 10 Oeste 0 -- -- 86
2019-12-10 04:00:00 13.4 6 Oeste 8 Noroeste 0 -- -- 87
2019-12-10 03:00:00 13.9 4 Noroeste 8 Norte 0 -- -- 83
2019-12-10 02:00:00 13.9 5 Oeste 8 Sudoeste 0 -- -- 79
2019-12-10 01:00:00 14.2 3 Norte 9 Noroeste 0 -- -- 77
2019-12-10 00:00:00 14.4 5 Noroeste 9 Oeste 0 -- -- 81
2019-12-09 23:00:00 15.2 3 Oeste 9 Oeste 0 -- -- 84
2019-12-09 22:00:00 15.7 6 Noroeste 15 Oeste 0 -- -- 85
2019-12-09 21:00:00 16.8 12 Oeste 30 Noroeste 0 -- -- 80
2019-12-09 20:00:00 17 15 Noroeste 29 Noroeste 0 -- -- 64
2019-12-09 19:00:00 17.7 14 Noroeste 31 Norte 0 -- -- 63
2019-12-09 18:00:00 17.8 9 Norte 17 Norte 0 -- -- 65
2019-12-09 17:00:00 18.3 5 Oeste 12 Sudoeste 0 -- -- 72
2019-12-09 16:00:00 18 4 Sudoeste 8 Noroeste 0 -- -- 68
2019-12-09 15:00:00 17.5 6 Oeste 12 Oeste 0 -- -- 73
2019-12-09 14:00:00 17.2 12 Oeste 18 Oeste 0 -- -- 77
2019-12-09 13:00:00 17.3 9 Sudoeste 12 Oeste 0 -- -- 78
2019-12-09 12:00:00 18.3 8 Oeste 34 Noroeste 0 -- -- 73
2019-12-09 11:00:00 18.6 16 Noroeste 35 Norte 0 -- -- 62
2019-12-09 10:00:00 18.7 19 Norte 36 Norte 0 -- -- 62
2019-12-09 09:00:00 16.8 10 Norte 23 Norte 0 -- -- 72
2019-12-09 08:00:00 15.8 0 Calma 21 Norte 0 -- -- 73
2019-12-09 07:00:00 15 4 Oeste 12 Nordeste 0 -- -- 81
2019-12-09 06:00:00 14.8 5 Nordeste 11 Este 0 -- -- 85
2019-12-09 05:00:00 15.4 4 Nordeste 19 Sudoeste 0 -- -- 82
2019-12-09 04:00:00 16.3 7 Noroeste 18 Noroeste 0 -- -- 63
2019-12-09 03:00:00 15.6 13 Noroeste 19 Norte 0 -- -- 63
2019-12-09 02:00:00 16.9 9 Norte 21 Noroeste 0 -- -- 56
2019-12-09 01:00:00 14.6 6 Norte 10 Oeste 0 -- -- 80
2019-12-09 00:00:00 15.1 4 Nordeste 9 Nordeste 0 -- -- 76
2019-12-08 23:00:00 15.1 2 Norte 9 Noroeste 0 -- -- 75
2019-12-08 22:00:00 14.6 2 Nordeste 17 Oeste 0 -- -- 71
2019-12-08 21:00:00 16.6 12 Norte 19 Norte 0 -- -- 59
2019-12-08 20:00:00 16.4 6 Oeste 21 Norte 0 -- -- 74
2019-12-08 19:00:00 16 3 Este 10 Nordeste 0 -- -- 76
2019-12-08 18:00:00 16.7 0 Calma 6 Sudoeste 0 -- -- 77
2019-12-08 17:00:00 17.9 3 Oeste 8 Oeste 0 -- -- 76
2019-12-08 16:00:00 16.3 6 Oeste 10 Sudoeste 0 -- -- 79
2019-12-08 15:00:00 15.9 9 Sudoeste 13 Sudoeste 0 -- -- 76
2019-12-08 14:00:00 15.6 9 Sudoeste 13 Sudoeste 0 -- -- 78
2019-12-08 13:00:00 15.3 9 Sudoeste 18 Oeste 0 -- -- 78
2019-12-08 12:00:00 15.2 14 Oeste 18 Oeste 0 -- -- 79
2019-12-08 11:00:00 15.3 15 Oeste 19 Oeste 0 -- -- 77
2019-12-08 10:00:00 14.9 10 Oeste 15 Oeste 0 -- -- 84
2019-12-08 09:00:00 13.2 8 Noroeste 12 Noroeste 0 -- -- 87
2019-12-08 08:00:00 11.8 7 Noroeste 11 Oeste 0 -- -- 87
2019-12-08 07:00:00 12.4 8 Noroeste 10 Oeste 0 -- -- 89
2019-12-08 06:00:00 12.6 8 Oeste 10 Oeste 0 -- -- 91
2019-12-08 05:00:00 12.3 5 Noroeste 6 Noroeste 0 -- -- 92
2019-12-08 04:00:00 12.4 3 Noroeste 4 Noroeste 0 -- -- 91
2019-12-08 03:00:00 12.5 3 Este 6 Norte 0 -- -- 90
2019-12-08 02:00:00 13.5 4 Este 12 Noroeste 0 -- -- 89
2019-12-08 01:00:00 14 9 Noroeste 13 Noroeste 0 -- -- 86
2019-12-08 00:00:00 13.7 6 Noroeste 9 Noroeste 0 -- -- 87
2019-12-07 23:00:00 13.7 6 Noroeste 9 Noroeste 0 -- -- 85
2019-12-07 22:00:00 13.9 5 Noroeste 10 Noroeste 0 -- -- 85
2019-12-07 21:00:00 14.4 6 Noroeste 10 Noroeste 0 -- -- 83
2019-12-07 20:00:00 14.5 6 Noroeste 10 Noroeste 0 -- -- 82
2019-12-07 19:00:00 14.8 7 Noroeste 9 Noroeste 0 -- -- 82
2019-12-07 18:00:00 16.1 6 Oeste 9 Oeste 0 -- -- 77
2019-12-07 17:00:00 16.9 6 Oeste 10 Oeste 0 -- -- 75
2019-12-07 16:00:00 17.1 7 Oeste 9 Oeste 0 -- -- 78
2019-12-07 15:00:00 16.8 8 Oeste 9 Oeste 0 -- -- 77
2019-12-07 14:00:00 17.5 3 Sudoeste 7 Sudoeste 0 -- -- 76
2019-12-07 13:00:00 16.6 6 Oeste 10 Oeste 0 -- -- 78
2019-12-07 12:00:00 16.2 9 Oeste 10 Oeste 0 -- -- 78
2019-12-07 11:00:00 16.7 4 Sudoeste 5 Sudoeste 0 -- -- 77
2019-12-07 10:00:00 17 0 Calma 11 Noroeste 0 -- -- 74
2019-12-07 09:00:00 14.9 8 Noroeste 12 Noroeste 0 -- -- 75
2019-12-07 08:00:00 14.6 6 Noroeste 14 Oeste 0 -- -- 76
2019-12-07 07:00:00 14.3 6 Noroeste 10 Noroeste 0 -- -- 80
2019-12-07 06:00:00 14.4 4 Noroeste 8 Noroeste 0 -- -- 80
2019-12-07 05:00:00 14.6 5 Noroeste 9 Noroeste 0 -- -- 80
2019-12-07 04:00:00 14.7 3 Noroeste 9 Norte 0 -- -- 81
2019-12-07 03:00:00 14.8 8 Noroeste 10 Noroeste 0 -- -- 81
2019-12-07 02:00:00 14.7 4 Norte 8 Norte 0 -- -- 83
2019-12-07 01:00:00 15.2 7 Nordeste 11 Nordeste 0 -- -- 82
2019-12-07 00:00:00 14.9 5 Nordeste 11 Nordeste 0 -- -- 83
2019-12-06 23:00:00 15 7 Nordeste 13 Norte 0 -- -- 82
2019-12-06 22:00:00 15.1 10 Nordeste 16 Nordeste 0 -- -- 80
2019-12-06 21:00:00 15.1 9 Norte 14 Nordeste 0 -- -- 80
2019-12-06 20:00:00 15.5 9 Nordeste 16 Nordeste 0 -- -- 78
2019-12-06 19:00:00 15.7 10 Nordeste 16 Nordeste 0 -- -- 75
2019-12-06 18:00:00 16.3 10 Nordeste 23 Nordeste 0 -- -- 71
2019-12-06 17:00:00 17.4 16 Nordeste 22 Este 0 -- -- 65
2019-12-06 16:00:00 17.3 20 Este 32 Nordeste 0 -- -- 66
2019-12-06 15:00:00 17.3 16 Este 22 Este 0 -- -- 65
2019-12-06 14:00:00 17.1 17 Este 27 Nordeste 0 -- -- 69
2019-12-06 13:00:00 17.2 22 Este 30 Nordeste 0 -- -- 67
2019-12-06 12:00:00 17.1 21 Este 29 Nordeste 0 -- -- 67
2019-12-06 11:00:00 16.7 18 Este 24 Este 0 -- -- 71
2019-12-06 10:00:00 16.8 12 Nordeste 17 Nordeste 0 -- -- 68
2019-12-06 09:00:00 15.1 11 Nordeste 20 Nordeste 0 -- -- 74
2019-12-06 08:00:00 13.5 8 Nordeste 12 Norte 0 -- -- 83
2019-12-06 07:00:00 12.8 5 Norte 8 Norte 0 -- -- 84
2019-12-06 06:00:00 12.8 5 Norte 9 Norte 0 -- -- 83
2019-12-06 05:00:00 12.9 7 Norte 9 Norte 0 -- -- 81
2019-12-06 04:00:00 13.1 7 Norte 8 Noroeste 0 -- -- 82
2019-12-06 03:00:00 13.2 4 Norte 9 Norte 0 -- -- 82
2019-12-06 02:00:00 13.1 2 Norte 7 Norte 0 -- -- 85
2019-12-06 01:00:00 13.9 4 Norte 10 Norte 0 -- -- 84
2019-12-06 00:00:00 13.7 5 Norte 13 Norte 0 -- -- 85
2019-12-05 23:00:00 14.7 8 Nordeste 17 Nordeste 0 -- -- 82
2019-12-05 22:00:00 14.8 10 Nordeste 18 Nordeste 0 -- -- 80
2019-12-05 21:00:00 15.1 11 Nordeste 20 Nordeste 0 -- -- 79
2019-12-05 20:00:00 15.2 15 Nordeste 25 Nordeste 0 -- -- 82
2019-12-05 19:00:00 15.1 13 Nordeste 29 Nordeste 0 -- -- 82
2019-12-05 18:00:00 15.3 20 Nordeste 28 Nordeste 0 -- -- 82
2019-12-05 17:00:00 15.6 20 Nordeste 28 Nordeste 0 -- -- 76
2019-12-05 16:00:00 15.7 17 Nordeste 30 Nordeste 0 -- -- 65
2019-12-05 15:00:00 15.3 17 Nordeste 31 Nordeste 0 -- -- 66
2019-12-05 14:00:00 15.1 22 Nordeste 34 Este 0 -- -- 71
2019-12-05 13:00:00 15 25 Este 29 Nordeste 0 -- -- 70
2019-12-05 12:00:00 15.8 17 Este 21 Este 0 -- -- 68
2019-12-05 11:00:00 15.8 17 Este 19 Este 0 -- -- 69
2019-12-05 10:00:00 15.9 5 Este 8 Este 0 -- -- 62
2019-12-05 09:00:00 13 0 Calma 6 Sudoeste 0 -- -- 71
2019-12-05 08:00:00 12 4 Nordeste 9 Noroeste 0 -- -- 72
2019-12-05 07:00:00 11.5 4 Noroeste 8 Oeste 0 -- -- 71
2019-12-05 06:00:00 13.1 5 Noroeste 17 Noroeste 0 -- -- 70
2019-12-05 05:00:00 13.3 11 Noroeste 15 Noroeste 0 -- -- 58
2019-12-05 04:00:00 13.1 8 Oeste 19 Noroeste 0 -- -- 65
2019-12-05 03:00:00 13.4 9 Oeste 16 Oeste 0 -- -- 69
2019-12-05 02:00:00 12.8 4 Noroeste 10 Oeste 0 -- -- 68
2019-12-05 01:00:00 12.8 3 Sur 11 Sudoeste 0 -- -- 69
2019-12-05 00:00:00 12.5 0 Calma 8 Sudoeste 0 -- -- 75
2019-12-04 23:00:00 12.6 5 Noroeste 21 Sudoeste 0 -- -- 73
2019-12-04 22:00:00 13 7 Oeste 10 Oeste 0 -- -- 76
2019-12-04 21:00:00 13.6 5 Noroeste 30 Sudoeste 0 -- -- 70
2019-12-04 20:00:00 14.6 20 Sudoeste 27 Sudoeste 0 -- -- 74
2019-12-04 19:00:00 14.3 15 Oeste 41 Sudoeste 0 -- -- 69
2019-12-04 18:00:00 14.9 35 Oeste 48 Oeste 0 -- -- 68
2019-12-04 17:00:00 15.5 37 Sudoeste 47 Sudoeste 0 -- -- 70
2019-12-04 16:00:00 15.7 39 Sudoeste 47 Sudoeste 0 -- -- 72
2019-12-04 15:00:00 15.7 37 Sudoeste 46 Sudoeste 0 -- -- 74
2019-12-04 14:00:00 15.9 36 Sudoeste 42 Sudoeste 0 -- -- 72
2019-12-04 13:00:00 15.7 16 Sudoeste 37 Sudoeste 0 -- -- 76
2019-12-04 12:00:00 15 32 Sudoeste 41 Sudoeste 0 -- -- 80
2019-12-04 11:00:00 15.5 15 Oeste 24 Oeste 0 -- -- 75
2019-12-04 10:00:00 15.3 20 Oeste 30 Oeste 0 -- -- 74
2019-12-04 09:00:00 13.8 15 Oeste 37 Noroeste 0 -- -- 84
2019-12-04 08:00:00 13.1 19 Oeste 32 Oeste 0 -- -- 86
2019-12-04 07:00:00 12.1 4 Oeste 10 Oeste 0 -- -- 83
2019-12-04 06:00:00 11.9 5 Oeste 12 Noroeste 0 -- -- 89
2019-12-04 05:00:00 12.1 7 Noroeste 11 Noroeste 0 -- -- 90
2019-12-04 04:00:00 12.2 2 Noroeste 5 Noroeste 0 -- -- 90
2019-12-04 03:00:00 13.1 0 Calma 6 Noroeste 0 -- -- 87
2019-12-04 02:00:00 13.6 6 Noroeste 11 Oeste 0 -- -- 86
2019-12-04 01:00:00 13.7 8 Noroeste 12 Oeste 0 -- -- 85
2019-12-04 00:00:00 13.4 9 Oeste 11 Oeste 0 -- -- 86
2019-12-03 23:00:00 13.8 8 Noroeste 13 Noroeste 0 -- -- 84
2019-12-03 22:00:00 13.8 10 Noroeste 13 Oeste 0 -- -- 84
2019-12-03 21:00:00 13.8 -- -- -- -- -- -- -- --
2019-12-03 20:00:00 14.1 8 Oeste 13 Oeste 0 -- -- 87
2019-12-03 19:00:00 14.2 7 Oeste 21 Oeste 0 -- -- 87
2019-12-03 18:00:00 14.6 17 Oeste 21 Sudoeste 0 -- -- 87
2019-12-03 17:00:00 15.1 11 Oeste 16 Oeste 0 -- -- 78
2019-12-03 16:00:00 15 12 Sudoeste 18 Sudoeste 0 -- -- 76
2019-12-03 15:00:00 14.9 14 Sudoeste 18 Sudoeste 0 -- -- 82
2019-12-03 14:00:00 15.4 6 Sudoeste 9 Sudoeste 0 -- -- 81
2019-12-03 13:00:00 14.6 0 Calma 27 Este 1 -- -- 81
2019-12-03 12:00:00 16.2 23 Nordeste 33 Este 0 -- -- 66
2019-12-03 11:00:00 16.2 15 Norte 30 Norte 0 -- -- 62
2019-12-03 10:00:00 14.7 9 Sudoeste 17 Sudoeste 0 -- -- 76
2019-12-03 09:00:00 12.9 9 Noroeste 16 Oeste 0 -- -- 88
2019-12-03 08:00:00 13.1 7 Noroeste 14 Noroeste 0 -- -- 87
2019-12-03 07:00:00 12.9 4 Noroeste 15 Oeste 0 -- -- 88
2019-12-03 06:00:00 13.3 4 Noroeste 19 Norte 0 -- -- 86
2019-12-03 05:00:00 13.5 12 Nordeste 19 Nordeste 0.2 -- -- 87
2019-12-03 04:00:00 13.4 8 Nordeste 14 Nordeste 0.4 -- -- 88
2019-12-03 03:00:00 13.8 9 Nordeste 17 Norte 0 -- -- 89
2019-12-03 02:00:00 13.9 11 Nordeste 20 Nordeste 0 -- -- 89
2019-12-03 01:00:00 14 14 Nordeste 35 Este 0 -- -- 88
2019-12-03 00:00:00 14.6 26 Este 41 Nordeste 0 -- -- 89
2019-12-02 23:00:00 14.8 30 Este 36 Este 0 -- -- 87
2019-12-02 22:00:00 14.8 22 Nordeste 31 Este 0 -- -- 86
2019-12-02 21:00:00 14.2 17 Nordeste 27 Nordeste 0 -- -- 85
2019-12-02 20:00:00 14.2 19 Nordeste 33 Nordeste 0 -- -- 88
2019-12-02 19:00:00 14.7 24 Nordeste 35 Nordeste 0 -- -- 88
2019-12-02 18:00:00 14.5 19 Nordeste 28 Nordeste 0 -- -- 89
2019-12-02 17:00:00 14.4 17 Nordeste 26 Nordeste 0 -- -- 88
2019-12-02 16:00:00 14.5 17 Nordeste 26 Nordeste 0 -- -- 89
2019-12-02 15:00:00 13.9 8 Norte 13 Norte 0.4 -- -- 89
2019-12-02 14:00:00 13.5 14 Nordeste 19 Nordeste 2.4 -- -- 90
2019-12-02 13:00:00 13.7 5 Nordeste 28 Nordeste 1 -- -- 88
2019-12-02 12:00:00 14.8 21 Nordeste 29 Nordeste 0 -- -- 80
2019-12-02 11:00:00 14.5 22 Nordeste 29 Nordeste 0 -- -- 82
2019-12-02 10:00:00 13.2 11 Nordeste 15 Nordeste 0 -- -- 91
2019-12-02 09:00:00 12.1 6 Nordeste 9 Norte 0.2 -- -- 94
2019-12-02 08:00:00 11.4 4 Norte 23 Norte 26.6 -- -- 93
2019-12-02 07:00:00 13.3 4 Nordeste 9 Nordeste 1.2 -- -- 91
2019-12-02 06:00:00 13 5 Norte 9 Norte 0 -- -- 91
2019-12-02 05:00:00 12.7 6 Norte 10 Norte 0 -- -- 92
2019-12-02 04:00:00 12.2 6 Norte 6 Norte 0 -- -- 92
2019-12-02 03:00:00 12.6 2 Norte 6 Noroeste 0.2 -- -- 90
2019-12-02 02:00:00 13.3 6 Noroeste 9 Oeste 0 -- -- 89
2019-12-02 01:00:00 12.6 0 Calma 6 Noroeste 0 -- -- 90
2019-12-02 00:00:00 12.6 5 Norte 12 Oeste 0 -- -- 90
2019-12-01 23:00:00 13.2 3 Oeste 21 Oeste 0 -- -- 89
2019-12-01 22:00:00 14.4 20 Oeste 26 Sudoeste 0 -- -- 89
2019-12-01 21:00:00 14.1 10 Oeste 29 Sudoeste 0 -- -- 90
2019-12-01 20:00:00 14.6 19 Sudoeste 28 Sudoeste 0 -- -- 90
2019-12-01 19:00:00 14.6 23 Sudoeste 34 Sudoeste 0.6 -- -- 88
2019-12-01 18:00:00 15 19 Sudoeste 44 Sudoeste 0 -- -- 86
2019-12-01 17:00:00 15.7 33 Sudoeste 41 Sudoeste 0 -- -- 80
2019-12-01 16:00:00 16 32 Sudoeste 39 Sudoeste 0 -- -- 76
2019-12-01 15:00:00 16.6 12 Sudoeste 17 Sur 0 -- -- 75
2019-12-01 14:00:00 16.3 18 Sur 30 Sudoeste 0 -- -- 71
2019-12-01 13:00:00 15.7 15 Sudoeste 30 Sudoeste 0 -- -- 80
2019-12-01 12:00:00 15.8 10 Oeste 27 Sudoeste 0 -- -- 81
2019-12-01 11:00:00 15.4 16 Oeste 26 Oeste 0 -- -- 81
2019-12-01 10:00:00 14.9 15 Oeste 22 Sudoeste 0 -- -- 84
2019-12-01 09:00:00 14.9 15 Sudoeste 20 Sudoeste 0 -- -- 83
2019-12-01 08:00:00 14.8 5 Sudeste 8 Sudeste 0 -- -- 91
2019-12-01 07:00:00 14.7 3 Sudeste 6 Sudeste 0 -- -- 90
2019-12-01 06:00:00 14.4 3 Este 15 Oeste 0 -- -- 89
2019-12-01 05:00:00 15.2 10 Oeste 19 Noroeste 0 -- -- 87
2019-12-01 04:00:00 14 9 Oeste 17 Oeste 0 -- -- 86
2019-12-01 03:00:00 12.6 10 Oeste 14 Oeste 0 -- -- 88
2019-12-01 02:00:00 12.6 8 Noroeste 12 Oeste 0 -- -- 90
2019-12-01 01:00:00 13.6 9 Oeste 14 Oeste 0 -- -- 88
2019-12-01 00:00:00 13.9 3 Oeste 6 Oeste 0 -- -- 87
2019-11-30 23:00:00 14 0 Calma 8 Oeste 0 -- -- 84
2019-11-30 22:00:00 14.3 5 Noroeste 9 Noroeste 0 -- -- 84
2019-11-30 21:00:00 13.7 5 Sudoeste 8 Oeste 0 -- -- 84
2019-11-30 20:00:00 14.8 5 Sur 13 Oeste 0 -- -- 87
2019-11-30 19:00:00 14.3 5 Noroeste 9 Noroeste 0 -- -- 87
2019-11-30 18:00:00 15.5 8 Sudoeste 9 Oeste 0 -- -- 86
2019-11-30 17:00:00 16.9 5 Sudoeste 7 Sudoeste 0 -- -- 79
2019-11-30 16:00:00 18.1 0 Calma 5 Sudoeste 0 -- -- 75
2019-11-30 15:00:00 17.4 3 Sudoeste 5 Sudoeste 0 -- -- 75
2019-11-30 14:00:00 16.3 4 Sudoeste 6 Oeste 0 -- -- 83
2019-11-30 13:00:00 16.1 0 Calma 5 Sur 0 -- -- 83
2019-11-30 12:00:00 16.4 4 Sudoeste 5 Sudoeste 0 -- -- 80
2019-11-30 11:00:00 16.7 3 Oeste 4 Oeste 0 -- -- 75
2019-11-30 10:00:00 16 0 Calma 2 Sudeste 0 -- -- 77
2019-11-30 09:00:00 14.4 0 Calma 6 Nordeste 0 -- -- 80
2019-11-30 08:00:00 12.3 3 Nordeste 5 Nordeste 0 -- -- 84
2019-11-30 07:00:00 12.6 3 Noroeste 8 Noroeste 0 -- -- 82
2019-11-30 06:00:00 12.4 5 Noroeste 7 Oeste 0 -- -- 86
2019-11-30 05:00:00 12.5 0 Calma 3 Oeste 0 -- -- 85
2019-11-30 04:00:00 12.4 0 Calma 2 Oeste 0 -- -- 85
2019-11-30 03:00:00 12.8 2 Nordeste 5 Noroeste 0 -- -- 84
2019-11-30 02:00:00 13.6 3 Noroeste 17 Nordeste 0 -- -- 82
2019-11-30 01:00:00 14.8 14 Nordeste 25 Este 0 -- -- 81
2019-11-30 00:00:00 15 21 Nordeste 25 Este 0 -- -- 83
2019-11-29 23:00:00 15.2 15 Nordeste 19 Nordeste 0 -- -- 81
2019-11-29 22:00:00 13.7 0 Calma 4 Este 0 -- -- 86
2019-11-29 21:00:00 14.6 0 Calma 9 Nordeste 0 -- -- 84
2019-11-29 20:00:00 15.6 0 Calma 15 Noroeste 0 -- -- 76
2019-11-29 19:00:00 15.5 7 Oeste 11 Sudoeste 0 -- -- 76
2019-11-29 18:00:00 17 6 Noroeste 15 Oeste 0 -- -- 74
2019-11-29 17:00:00 16.7 15 Oeste 19 Oeste 0 -- -- 78
2019-11-29 16:00:00 16.4 18 Oeste 20 Oeste 0 -- -- 76
2019-11-29 15:00:00 15.9 16 Oeste 19 Oeste 0 -- -- 78
2019-11-29 14:00:00 15.7 17 Oeste 18 Oeste 0 -- -- 78
2019-11-29 13:00:00 15.3 13 Oeste 16 Sudoeste 0 -- -- 84
2019-11-29 12:00:00 15.3 10 Oeste 13 Sudoeste 0 -- -- 81
2019-11-29 11:00:00 15.5 8 Sudoeste 12 Sudoeste 0 -- -- 80
2019-11-29 10:00:00 15.2 10 Sudoeste 13 Sudoeste 0 -- -- 78
2019-11-29 09:00:00 14.2 7 Oeste 12 Oeste 0 -- -- 75
2019-11-29 08:00:00 14 6 Oeste 14 Oeste 0 -- -- 76
2019-11-29 07:00:00 13.6 4 Oeste 20 Oeste 0 -- -- 73
2019-11-29 06:00:00 12.6 4 Oeste 9 Norte 0 -- -- 80
2019-11-29 05:00:00 12.9 7 Oeste 13 Oeste 0 -- -- 79
2019-11-29 04:00:00 13 8 Noroeste 10 Oeste 0 -- -- 82
2019-11-29 03:00:00 13.8 6 Oeste 12 Sudoeste 0 -- -- 79
2019-11-29 02:00:00 13.9 6 Oeste 14 Sudoeste 0 -- -- 82
2019-11-29 01:00:00 15 9 Oeste 18 Noroeste 0 -- -- 75
2019-11-29 00:00:00 14.5 7 Oeste 13 Oeste 0 -- -- 80
2019-11-28 23:00:00 15.5 10 Oeste 19 Oeste 0 -- -- 75
2019-11-28 22:00:00 16.5 11 Noroeste 29 Norte 0 -- -- 67
2019-11-28 21:00:00 17.3 15 Norte 28 Norte 0 -- -- 63
2019-11-28 20:00:00 17.1 9 Noroeste 17 Norte 0 -- -- 64
2019-11-28 19:00:00 15.9 4 Oeste 11 Noroeste 0 -- -- 74
2019-11-28 18:00:00 16.3 6 Oeste 8 Oeste 0 -- -- 82
2019-11-28 17:00:00 17.6 5 Oeste 8 Oeste 0 -- -- 76
2019-11-28 16:00:00 18.6 3 Sudoeste 9 Sudoeste 0 -- -- 69
2019-11-28 15:00:00 16.3 10 Sudoeste 14 Oeste 0 -- -- 75
2019-11-28 14:00:00 16.5 10 Oeste 17 Oeste 0 -- -- 69
2019-11-28 13:00:00 15.5 14 Oeste 18 Oeste 0 -- -- 77
2019-11-28 12:00:00 15.9 13 Sur 18 Sur 0 -- -- 77
2019-11-28 11:00:00 16.7 11 Sur 13 Sur 0 -- -- 72
2019-11-28 10:00:00 16.4 7 Oeste 10 Noroeste 0 -- -- 72
2019-11-28 09:00:00 15.1 4 Oeste 13 Noroeste 0 -- -- 76
2019-11-28 08:00:00 13.7 5 Oeste 15 Noroeste 0 -- -- 79
2019-11-28 07:00:00 14.1 8 Norte 13 Norte 0 -- -- 74
2019-11-28 06:00:00 12.5 2 Noroeste 7 Norte 0 -- -- 83
2019-11-28 05:00:00 12.8 6 Noroeste 8 Noroeste 0 -- -- 84
2019-11-28 04:00:00 12.3 4 Oeste 6 Oeste 0 -- -- 88
2019-11-28 03:00:00 12.5 2 Nordeste 9 Nordeste 0 -- -- 88
2019-11-28 02:00:00 13.1 3 Oeste 9 Este 0 -- -- 90
2019-11-28 01:00:00 13.5 0 Calma 5 Noroeste 0 -- -- 90
2019-11-28 00:00:00 13.9 4 Oeste 8 Noroeste 0 -- -- 90
2019-11-27 23:00:00 14.1 0 Calma 5 Norte 0 -- -- 89
2019-11-27 22:00:00 14.4 2 Oeste 13 Oeste 0 -- -- 88
2019-11-27 21:00:00 15.7 11 Oeste 26 Sudoeste 0 -- -- 86
2019-11-27 20:00:00 16.2 19 Oeste 29 Oeste 0 -- -- 84
2019-11-27 19:00:00 16 14 Oeste 36 Oeste 0 -- -- 86
2019-11-27 18:00:00 16.9 19 Oeste 33 Oeste 0 -- -- 83
2019-11-27 17:00:00 17.1 24 Oeste 36 Oeste 0 -- -- 84
2019-11-27 16:00:00 17 25 Oeste 37 Oeste 0 -- -- 84
2019-11-27 15:00:00 16.7 28 Oeste 39 Oeste 0 -- -- 85
2019-11-27 14:00:00 16.8 25 Oeste 41 Sudoeste 0 -- -- 86
2019-11-27 06:00:00 -- -- -- -- -- -- -- -- --
2019-11-27 05:00:00 15.5 24 Sudoeste 49 Sudoeste 0 -- -- 90
2019-11-27 04:00:00 16 41 Sudoeste 55 Sudoeste 0 -- -- 87
2019-11-27 03:00:00 16.3 46 Sudoeste 54 Sudoeste 0 -- -- 84
2019-11-27 02:00:00 16.3 36 Sudoeste 51 Sudoeste 0 -- -- 84
2019-11-27 01:00:00 16.6 41 Sudoeste 54 Sudoeste 0 -- -- 82
2019-11-27 00:00:00 16.5 33 Oeste 41 Oeste 0 -- -- 82
2019-11-26 23:00:00 16 27 Oeste 41 Sudoeste 0 -- -- 86
2019-11-26 22:00:00 16 10 Oeste 19 Oeste 0 -- -- 84
2019-11-26 21:00:00 16.3 4 Oeste 21 Oeste 0 -- -- 81
2019-11-26 20:00:00 17.4 22 Oeste 39 Oeste 0 -- -- 75
2019-11-26 19:00:00 17 19 Oeste 44 Sudoeste 0 -- -- 81
2019-11-26 18:00:00 17.7 21 Oeste 38 Oeste 0 -- -- 80
2019-11-26 17:00:00 18 10 Oeste 42 Oeste 0 -- -- 82
2019-11-26 16:00:00 19 24 Oeste 36 Oeste 0 -- -- 79
2019-11-26 15:00:00 17.2 10 Oeste 20 Oeste 0 -- -- 85
2019-11-26 14:00:00 17.1 17 Oeste 19 Oeste 0 -- -- 84
2019-11-26 13:00:00 16.5 6 Sudoeste 16 Oeste 0 -- -- 82
2019-11-26 12:00:00 17 10 Oeste 17 Oeste 0 -- -- 79
2019-11-26 11:00:00 17.3 6 Sur 12 Sur 0 -- -- 85
2019-11-26 10:00:00 17.7 0 Calma 7 Sudeste 0 -- -- 83
2019-11-26 09:00:00 14.7 3 Oeste 5 Oeste 0 -- -- 92
2019-11-26 08:00:00 13.3 0 Calma 12 Oeste 0 -- -- 94
2019-11-26 07:00:00 13.2 6 Oeste 9 Oeste 0 -- -- 95
2019-11-26 06:00:00 13.6 4 Este 8 Este 0 -- -- 94
2019-11-26 05:00:00 14 4 Este 10 Sudeste 0 -- -- 94
2019-11-26 04:00:00 14 0 Calma 5 Oeste 0 -- -- 93
2019-11-26 03:00:00 14.6 0 Calma 5 Noroeste 0 -- -- 92
2019-11-26 02:00:00 15.3 5 Oeste 15 Sudoeste 0 -- -- 91
2019-11-26 01:00:00 15.5 9 Oeste 27 Oeste 0 -- -- 91
2019-11-26 00:00:00 16 20 Oeste 30 Oeste 0 -- -- 89
2019-11-25 23:00:00 16.3 23 Oeste 28 Oeste 0 -- -- 88
2019-11-25 22:00:00 15.6 8 Oeste 14 Oeste 0 -- -- 87
2019-11-25 21:00:00 16 6 Oeste 35 Oeste 0 -- -- 85
2019-11-25 20:00:00 16.5 20 Oeste 30 Oeste 0 -- -- 85
2019-11-25 19:00:00 16.8 22 Oeste 34 Oeste 0 -- -- 83
2019-11-25 18:00:00 16.6 22 Oeste 36 Oeste 0 -- -- 83
2019-11-25 17:00:00 17.4 27 Oeste 39 Oeste 0 -- -- 79
2019-11-25 16:00:00 17.6 30 Oeste 40 Oeste 0 -- -- 78
2019-11-25 15:00:00 17.9 5 Sudoeste 12 Sur 0 -- -- 76
2019-11-25 14:00:00 19.3 0 Calma 14 Este 0 -- -- 72
2019-11-25 13:00:00 15.9 13 Este 15 Este 0 -- -- 77
2019-11-25 12:00:00 15.6 5 Este 12 Este 0 -- -- 76
2019-11-25 11:00:00 15.4 8 Este 13 Este 0 -- -- 74
2019-11-25 10:00:00 16.2 0 Calma 12 Este 0 -- -- 68
2019-11-25 09:00:00 13.8 5 Noroeste 10 Noroeste 0 -- -- 74
2019-11-25 08:00:00 11.8 4 Noroeste 6 Noroeste 0 -- -- 77
2019-11-25 07:00:00 11.8 0 Calma 4 Nordeste 0 -- -- 77
2019-11-25 06:00:00 11.6 0 Calma 10 Norte 0 -- -- 76
2019-11-25 05:00:00 12.3 8 Noroeste 15 Noroeste 0 -- -- 71
2019-11-25 04:00:00 11.7 2 Sur 7 Sur 0 -- -- 77
2019-11-25 03:00:00 11.7 6 Nordeste 12 Oeste 0 -- -- 75
2019-11-25 02:00:00 11.6 10 Noroeste 16 Noroeste 0 -- -- 73
2019-11-25 01:00:00 11.7 3 Oeste 7 Noroeste 0 -- -- 74
2019-11-25 00:00:00 12 5 Oeste 7 Noroeste 0 -- -- 74
2019-11-24 23:00:00 12.2 2 Norte 5 Noroeste 0 -- -- 74
2019-11-24 22:00:00 13 5 Norte 9 Noroeste 0 -- -- 68
2019-11-24 21:00:00 13.6 7 Oeste 15 Oeste 0 -- -- 66
2019-11-24 20:00:00 14.2 4 Sudeste 9 Norte 0 -- -- 63
2019-11-24 19:00:00 14.4 5 Este 8 Este 0 -- -- 71
2019-11-24 18:00:00 16.9 0 Calma 11 Oeste 0 -- -- 61
2019-11-24 17:00:00 17.4 6 Oeste 17 Sudoeste 0 -- -- 61
2019-11-24 16:00:00 16.5 12 Sudoeste 19 Sur 0 -- -- 66
2019-11-24 15:00:00 16.6 4 Sudeste 9 Sur 0 -- -- 60
2019-11-24 14:00:00 16.1 4 Este 9 Sur 0 -- -- 64
2019-11-24 13:00:00 16.2 5 Sur 7 Sudeste 0 -- -- 60
2019-11-24 12:00:00 15.3 5 Sudoeste 14 Sur 0 -- -- 67
2019-11-24 11:00:00 15.8 5 Sur 15 Sur 0 -- -- 60
2019-11-24 10:00:00 14.5 3 Este 5 Este 0 -- -- 69
2019-11-24 09:00:00 13.3 3 Norte 6 Nordeste 0 -- -- 72
2019-11-24 08:00:00 10.8 0 Calma 10 Noroeste 0 -- -- 74
2019-11-24 07:00:00 10.9 6 Noroeste 11 Noroeste 0 -- -- 73
2019-11-24 06:00:00 10.3 6 Oeste 10 Oeste 0 -- -- 78
2019-11-24 05:00:00 11 4 Norte 13 Oeste 0 -- -- 75
2019-11-24 04:00:00 11 7 Oeste 14 Sudoeste 0 -- -- 78
2019-11-24 03:00:00 11.8 8 Norte 12 Noroeste 0 -- -- 78
2019-11-24 02:00:00 12 0 Calma 8 Nordeste 0 -- -- 79
2019-11-24 01:00:00 12.1 5 Norte 15 Sudoeste 0 -- -- 74
2019-11-24 00:00:00 12.7 4 Oeste 17 Oeste 0 -- -- 76
2019-11-23 23:00:00 12.9 5 Noroeste 26 Oeste 0 -- -- 76
2019-11-23 22:00:00 14.1 24 Oeste 41 Oeste 0 -- -- 78
2019-11-23 21:00:00 14.7 17 Oeste 34 Oeste 0 -- -- 75
2019-11-23 20:00:00 15 29 Oeste 39 Sudoeste 0 -- -- 74
2019-11-23 19:00:00 15.4 30 Oeste 35 Oeste 0 -- -- 68
2019-11-23 18:00:00 16.2 21 Oeste 39 Oeste 0 -- -- 58
2019-11-23 17:00:00 18.2 14 Oeste 35 Oeste 0 -- -- 46
2019-11-23 16:00:00 17.7 24 Oeste 45 Oeste 0 -- -- 45
2019-11-23 15:00:00 18.3 32 Oeste 48 Oeste 0 -- -- 42
2019-11-23 14:00:00 16 25 Oeste 44 Oeste 0 -- -- 66
2019-11-23 13:00:00 16.5 37 Oeste 49 Oeste 0 -- -- 61
2019-11-23 12:00:00 15.4 38 Sudoeste 50 Sudoeste 0 -- -- 70
2019-11-23 11:00:00 15.3 35 Sudoeste 42 Sudoeste 0 -- -- 72
2019-11-23 10:00:00 15.2 7 Nordeste 26 Nordeste 0 -- -- 70
2019-11-23 09:00:00 14.4 6 Nordeste 14 Este 0 -- -- 79
2019-11-23 08:00:00 14.5 8 Sudeste 47 Oeste 0 -- -- 80
2019-11-23 07:00:00 15.5 41 Oeste 59 Oeste 0 -- -- 71
2019-11-23 06:00:00 15.6 44 Sudoeste 66 Oeste 0 -- -- 70
2019-11-23 05:00:00 16.1 46 Oeste 63 Oeste 0 -- -- 65
2019-11-23 04:00:00 16.3 49 Oeste 65 Oeste 0 -- -- 66
2019-11-23 03:00:00 16.2 34 Oeste 48 Oeste 0 -- -- 68
2019-11-23 02:00:00 15.9 19 Oeste 35 Sudoeste 0 -- -- 70
2019-11-23 01:00:00 15 10 Oeste 27 Sudoeste 0 -- -- 78
2019-11-23 00:00:00 16.2 8 Este 18 Oeste 0 -- -- 78
2019-11-22 23:00:00 16 8 Noroeste 41 Sudoeste 0 -- -- 80
2019-11-22 22:00:00 16.1 13 Oeste 57 Sudoeste 0.6 -- -- 89
2019-11-22 21:00:00 16 37 Sudoeste 54 Sudoeste 2.8 -- -- 94
2019-11-22 20:00:00 15.8 36 Oeste 57 Sudoeste 2 -- -- 94
2019-11-22 19:00:00 16.7 40 Sudoeste 53 Sudoeste 0 -- -- 86
2019-11-22 18:00:00 16.4 31 Sur 45 Sudoeste 0 -- -- 87
2019-11-22 17:00:00 16.2 37 Sudoeste 57 Sudoeste 0 -- -- 89
2019-11-22 16:00:00 15.8 52 Sudoeste 71 Sudoeste 0 -- -- 92
2019-11-22 15:00:00 16 51 Sudoeste 67 Sudoeste 0 -- -- 89
2019-11-22 14:00:00 15.4 25 Sudoeste 39 Sudoeste 0 -- -- 91
2019-11-22 13:00:00 15.4 34 Sudoeste 47 Sudoeste 0 -- -- 91
2019-11-22 12:00:00 15.2 33 Sudoeste 44 Sudoeste 0.6 -- -- 92
2019-11-22 11:00:00 14.9 19 Sudoeste 36 Sudoeste 0 -- -- 95
2019-11-22 10:00:00 14.8 31 Sudoeste 37 Sudoeste 1.8 -- -- 96
2019-11-22 09:00:00 14.6 15 Sudoeste 32 Oeste 9.8 -- -- 97
2019-11-22 08:00:00 14.5 18 Sudoeste 31 Sudoeste 7.4 -- -- 96
2019-11-22 07:00:00 14.4 20 Sudoeste 28 Sudoeste 1.2 -- -- 95
2019-11-22 06:00:00 14.5 14 Oeste 27 Oeste 0 -- -- 94
2019-11-22 05:00:00 14.6 22 Oeste 35 Sudoeste 0.2 -- -- 94
2019-11-22 04:00:00 14.5 17 Oeste 23 Oeste 0.6 -- -- 96
2019-11-22 03:00:00 14.5 14 Oeste 19 Oeste 0.4 -- -- 96
2019-11-22 02:00:00 14.6 14 Oeste 20 Oeste 1.8 -- -- 95
2019-11-22 01:00:00 14.8 15 Oeste 22 Sudoeste 0 -- -- 94
2019-11-22 00:00:00 14.6 14 Oeste 22 Oeste 0 -- -- 95
2019-11-21 23:00:00 14.5 9 Oeste 17 Oeste 0 -- -- 95
2019-11-21 22:00:00 14.6 7 Oeste 21 Sudoeste 0 -- -- 95
2019-11-21 21:00:00 14.7 15 Oeste 38 Oeste 0.4 -- -- 94
2019-11-21 20:00:00 14.7 21 Oeste 34 Sudoeste 0 -- -- 94
2019-11-21 19:00:00 14.7 28 Sudoeste 36 Sudoeste 0.4 -- -- 96
2019-11-21 18:00:00 14.1 6 Sudeste 15 Sudeste 1.8 -- -- 96
2019-11-21 17:00:00 13.7 6 Nordeste 14 Nordeste 4.4 -- -- 95
2019-11-21 16:00:00 13.5 12 Nordeste 15 Nordeste 2.2 -- -- 95
2019-11-21 15:00:00 13.6 12 Este 17 Este 0.2 -- -- 94
2019-11-21 14:00:00 13.4 12 Este 14 Este 0.2 -- -- 94
2019-11-21 13:00:00 13.5 12 Este 13 Este 0 -- -- 95
2019-11-21 12:00:00 13.1 12 Este 15 Este 0.6 -- -- 95
2019-11-21 11:00:00 13.4 10 Este 13 Nordeste 2.4 -- -- 95
2019-11-21 10:00:00 13.1 2 Este 10 Noroeste 2.6 -- -- 94
2019-11-21 09:00:00 13.1 3 Nordeste 31 Sur 3.2 -- -- 94
2019-11-21 08:00:00 13.1 4 Norte 13 Sudeste 3.6 -- -- 94
2019-11-21 07:00:00 13 5 Nordeste 9 Sudeste 2.2 -- -- 93
2019-11-21 06:00:00 13 0 Calma 12 Noroeste 0.6 -- -- 93
2019-11-21 05:00:00 12.7 6 Noroeste 12 Noroeste 2.6 -- -- 92
2019-11-21 04:00:00 12.6 0 Calma 8 Noroeste 1 -- -- 91
2019-11-21 03:00:00 12.4 3 Noroeste 7 Oeste 0 -- -- 92
2019-11-21 02:00:00 12.2 3 Noroeste 6 Noroeste 0 -- -- 91
2019-11-21 01:00:00 12.1 5 Noroeste 9 Noroeste 0 -- -- 91
2019-11-21 00:00:00 12.3 5 Noroeste 8 Oeste 0 -- -- 91
2019-11-20 23:00:00 12.9 8 Oeste 9 Oeste 0 -- -- 90
2019-11-20 22:00:00 13.1 4 Sudoeste 9 Sudoeste 0 -- -- 89
2019-11-20 21:00:00 12.9 3 Este 6 Nordeste 0 -- -- 89
2019-11-20 20:00:00 13 3 Este 8 Sudeste 0 -- -- 88
2019-11-20 19:00:00 12.9 7 Sur 13 Sudoeste 0 -- -- 88
2019-11-20 18:00:00 12.8 7 Oeste 14 Sudoeste 0.4 -- -- 89
2019-11-20 17:00:00 13.2 3 Sudoeste 8 Oeste 0 -- -- 86
2019-11-20 16:00:00 13.1 5 Noroeste 9 Oeste 0 -- -- 87
2019-11-20 15:00:00 13.2 3 Noroeste 9 Sudeste 0.2 -- -- 88
2019-11-20 14:00:00 12.8 4 Sur 8 Este 0 -- -- 87
2019-11-20 13:00:00 13 0 Calma 9 Noroeste 0.4 -- -- 86
2019-11-20 12:00:00 12.4 5 Noroeste 8 Noroeste 1.2 -- -- 83
2019-11-20 11:00:00 13.3 3 Nordeste 8 Nordeste 0 -- -- 75
2019-11-20 10:00:00 13.8 4 Este 8 Nordeste 0 -- -- 71
2019-11-20 09:00:00 12.2 3 Este 9 Noroeste 0 -- -- 78
2019-11-20 08:00:00 10.4 6 Noroeste 8 Noroeste 0 -- -- 82
2019-11-20 07:00:00 10.3 0 Calma 2 Sur 0 -- -- 83
2019-11-20 06:00:00 10.6 0 Calma 3 Sudoeste 0 -- -- 82
2019-11-20 05:00:00 10.9 0 Calma 5 Oeste 0 -- -- 79
2019-11-20 04:00:00 11.6 3 Oeste 4 Oeste 0 -- -- 76
2019-11-20 03:00:00 12.1 0 Calma 3 Norte 0 -- -- 77
2019-11-20 02:00:00 11.9 0 Calma 11 Nordeste 0 -- -- 78
2019-11-20 01:00:00 13.1 6 Nordeste 9 Nordeste 0 -- -- 77
2019-11-20 00:00:00 13.4 5 Nordeste 8 Norte 0 -- -- 74
2019-11-19 23:00:00 13.5 3 Nordeste 8 Oeste 0 -- -- 73
2019-11-19 22:00:00 13.6 7 Noroeste 14 Noroeste 0 -- -- 70
2019-11-19 21:00:00 13.8 3 Norte 9 Norte 0 -- -- 74
2019-11-19 20:00:00 14.1 0 Calma 14 Oeste 0 -- -- 76
2019-11-19 19:00:00 14.3 4 Noroeste 12 Oeste 0 -- -- 75
2019-11-19 18:00:00 14.7 9 Oeste 20 Oeste 0 -- -- 76
2019-11-19 17:00:00 15.2 10 Oeste 14 Sudoeste 0 -- -- 76
2019-11-19 16:00:00 15.7 9 Sudoeste 14 Sudoeste 0 -- -- 74
2019-11-19 15:00:00 16.4 3 Sudoeste 5 Sudoeste 0 -- -- 63
2019-11-19 14:00:00 15.9 4 Sudoeste 6 Sudoeste 0 -- -- 59
2019-11-19 13:00:00 14.9 5 Sudoeste 12 Sudoeste 0 -- -- 65
2019-11-19 12:00:00 14.3 9 Sudoeste 12 Sudoeste 0 -- -- 67
2019-11-19 11:00:00 14.5 5 Sudoeste 7 Sudoeste 0 -- -- 63
2019-11-19 10:00:00 12.9 0 Calma 5 Nordeste 0 -- -- 64
2019-11-19 09:00:00 11.2 5 Norte 13 Oeste 0 -- -- 62
2019-11-19 08:00:00 11.4 2 Sudoeste 8 Norte 0 -- -- 69
2019-11-19 07:00:00 10.6 0 Calma 6 Nordeste 0 -- -- 63
2019-11-19 06:00:00 11.2 5 Noroeste 10 Noroeste 0 -- -- 62
2019-11-19 05:00:00 11.8 7 Noroeste 12 Oeste 0 -- -- 64
2019-11-19 04:00:00 13.2 4 Noroeste 21 Noroeste 0 -- -- 56
2019-11-19 03:00:00 13.8 9 Noroeste 20 Noroeste 0 -- -- 55
2019-11-19 02:00:00 13.7 9 Oeste 17 Noroeste 0 -- -- 57
2019-11-19 01:00:00 12.6 9 Noroeste 14 Noroeste 0 -- -- 55
2019-11-19 00:00:00 12.7 11 Noroeste 17 Noroeste 0 -- -- 54
2019-11-18 23:00:00 13.5 13 Noroeste 22 Noroeste 0 -- -- 50
2019-11-18 22:00:00 13.3 10 Noroeste 19 Oeste 0 -- -- 50
2019-11-18 21:00:00 12.9 4 Oeste 9 Noroeste 0 -- -- 53
2019-11-18 20:00:00 14.3 2 Sur 24 Nordeste 0 -- -- 54
2019-11-18 19:00:00 15.3 14 Noroeste 34 Noroeste 0 -- -- 45
2019-11-18 18:00:00 16.2 14 Noroeste 36 Norte 0 -- -- 42
2019-11-18 17:00:00 17.7 15 Norte 32 Norte 0 -- -- 40
2019-11-18 16:00:00 18 17 Norte 35 Norte 0 -- -- 40
2019-11-18 15:00:00 15.9 8 Sur 14 Este 0 -- -- 63
2019-11-18 14:00:00 15.1 12 Sudoeste 15 Sudoeste 0 -- -- 70
2019-11-18 13:00:00 14.7 13 Sudoeste 21 Sudoeste 0 -- -- 68
2019-11-18 12:00:00 14.6 20 Sudoeste 30 Nordeste 0 -- -- 64
2019-11-18 11:00:00 15.6 17 Nordeste 34 Nordeste 0 -- -- 47
2019-11-18 10:00:00 16 11 Noroeste 35 Norte 0 -- -- 41
2019-11-18 09:00:00 14.1 13 Noroeste 30 Norte 0 -- -- 52
2019-11-18 08:00:00 13.4 16 Norte 38 Noroeste 0 -- -- 52
2019-11-18 07:00:00 14.5 8 Norte 39 Sudoeste 0 -- -- 69
2019-11-18 06:00:00 15.5 17 Sudoeste 45 Sudoeste 0 -- -- 75
2019-11-18 05:00:00 14.7 37 Sudoeste 71 Sudoeste 0 -- -- 87
2019-11-18 04:00:00 15.1 54 Sudoeste 71 Sudoeste 0 -- -- 83
2019-11-18 03:00:00 15.2 50 Sudoeste 64 Sudoeste 0 -- -- 85
2019-11-18 02:00:00 15.1 53 Sudoeste 63 Sudoeste 0 -- -- 86
2019-11-18 01:00:00 15 44 Sudoeste 56 Sudoeste 0 -- -- 88
2019-11-18 00:00:00 14.9 42 Sudoeste 55 Sudoeste 0 -- -- 87
2019-11-17 23:00:00 14.8 47 Sudoeste 57 Sudoeste 0 -- -- 88
2019-11-17 22:00:00 14.5 45 Sudoeste 59 Sudoeste 0 -- -- 89
2019-11-17 21:00:00 14.4 49 Sudoeste 58 Sudoeste 0 -- -- 89
2019-11-17 20:00:00 14.6 36 Sudoeste 51 Sudoeste 0 -- -- 89
2019-11-17 19:00:00 14.3 44 Sudoeste 53 Sudoeste 0 -- -- 88
2019-11-17 18:00:00 14.2 38 Sudoeste 50 Sudoeste 0 -- -- 87
2019-11-17 17:00:00 14.3 38 Sudoeste 58 Sudoeste 0 -- -- 85
2019-11-17 16:00:00 14.4 41 Sudoeste 60 Sudoeste 0 -- -- 82
2019-11-17 15:00:00 14.3 50 Sudoeste 66 Sudoeste 0 -- -- 80
2019-11-17 14:00:00 14 56 Sudoeste 68 Sudoeste 0 -- -- 79
2019-11-17 13:00:00 14.3 52 Oeste 66 Oeste 0 -- -- 72
2019-11-17 12:00:00 13.8 53 Oeste 66 Oeste 0 -- -- 72
2019-11-17 11:00:00 13.8 41 Sudoeste 50 Sudoeste 0 -- -- 71
2019-11-17 10:00:00 13.7 20 Oeste 33 Oeste 0 -- -- 56
2019-11-17 09:00:00 12.6 12 Oeste 23 Oeste 0 -- -- 54
2019-11-17 08:00:00 10.8 15 Oeste 20 Oeste 0 -- -- 59
2019-11-17 07:00:00 10.8 8 Oeste 12 Oeste 0 -- -- 56
2019-11-17 06:00:00 10.5 8 Noroeste 19 Oeste 0 -- -- 51
2019-11-17 05:00:00 9.4 3 Norte 8 Oeste 0 -- -- 56
2019-11-17 04:00:00 9.1 2 Oeste 8 Norte 0 -- -- 60
2019-11-17 03:00:00 9.3 2 Norte 6 Oeste 0 -- -- 62
2019-11-17 02:00:00 9.6 0 Calma 8 Sudoeste 0 -- -- 62
2019-11-17 01:00:00 10.3 6 Noroeste 9 Noroeste 0 -- -- 54
2019-11-17 00:00:00 10.6 6 Oeste 12 Oeste 0 -- -- 58
2019-11-16 23:00:00 10.5 3 Norte 9 Oeste 0 -- -- 55
2019-11-16 22:00:00 11.5 6 Oeste 20 Oeste 0 -- -- 56
2019-11-16 21:00:00 13.3 12 Noroeste 22 Noroeste 0 -- -- 36
2019-11-16 20:00:00 12.7 8 Nordeste 12 Nordeste 0 -- -- 46
2019-11-16 19:00:00 13 5 Norte 13 Este 0 -- -- 44
2019-11-16 18:00:00 15.4 5 Nordeste 28 Sudoeste 0 -- -- 44
2019-11-16 17:00:00 15.2 23 Sudoeste 29 Sudoeste 0 -- -- 55
2019-11-16 16:00:00 15.1 21 Sudoeste 26 Sudoeste 0 -- -- 63
2019-11-16 15:00:00 14.8 13 Sudoeste 20 Sudoeste 0 -- -- 55
2019-11-16 14:00:00 14 18 Sudoeste 22 Sudoeste 0 -- -- 54
2019-11-16 13:00:00 13.3 13 Sur 19 Sudoeste 0 -- -- 55
2019-11-16 12:00:00 14.5 8 Sur 24 Norte 0 -- -- 41
2019-11-16 11:00:00 14.3 12 Nordeste 23 Norte 0 -- -- 39
2019-11-16 10:00:00 13.7 5 Sur 18 Noroeste 0 -- -- 44
2019-11-16 09:00:00 11.6 6 Noroeste 16 Noroeste 0 -- -- 46
2019-11-16 08:00:00 9.4 9 Noroeste 17 Oeste 0 -- -- 50
2019-11-16 07:00:00 9.5 6 Norte 15 Oeste 0 -- -- 53
2019-11-16 06:00:00 10.7 14 Oeste 27 Noroeste 0 -- -- 49
2019-11-16 05:00:00 10.1 10 Norte 14 Norte 0 -- -- 53
2019-11-16 04:00:00 9.3 2 Norte 12 Oeste 0 -- -- 61
2019-11-16 03:00:00 8.9 4 Oeste 9 Norte 0 -- -- 60
2019-11-16 02:00:00 10.6 7 Noroeste 10 Norte 0 -- -- 51
2019-11-16 01:00:00 10.5 0 Calma 13 Norte 0 -- -- 63
2019-11-16 00:00:00 10.8 8 Norte 16 Norte 0 -- -- 52